sensor_id;sensor_type;location;lat;lon;timestamp;temperature;humidity
1083;DHT22;530;51.448;7.238;2023-06-14T00:01:24;19.00;94.70
1083;DHT22;530;51.448;7.238;2023-06-14T00:03:50;19.00;94.70
1083;DHT22;530;51.448;7.238;2023-06-14T00:06:16;19.00;94.80
1083;DHT22;530;51.448;7.238;2023-06-14T00:08:42;18.90;95.00
1083;DHT22;530;51.448;7.238;2023-06-14T00:11:08;18.90;94.90
1083;DHT22;530;51.448;7.238;2023-06-14T00:13:34;18.90;95.00
1083;DHT22;530;51.448;7.238;2023-06-14T00:16:00;18.90;95.00
1083;DHT22;530;51.448;7.238;2023-06-14T00:18:25;18.80;95.30
1083;DHT22;530;51.448;7.238;2023-06-14T00:20:55;18.80;95.20
1083;DHT22;530;51.448;7.238;2023-06-14T00:23:21;18.80;95.00
1083;DHT22;530;51.448;7.238;2023-06-14T00:25:47;18.80;95.10
1083;DHT22;530;51.448;7.238;2023-06-14T00:28:13;18.80;95.00
1083;DHT22;530;51.448;7.238;2023-06-14T00:30:39;18.80;95.10
1083;DHT22;530;51.448;7.238;2023-06-14T00:33:05;18.80;94.90
1083;DHT22;530;51.448;7.238;2023-06-14T00:35:30;18.80;94.70
1083;DHT22;530;51.448;7.238;2023-06-14T00:37:56;18.80;94.60
1083;DHT22;530;51.448;7.238;2023-06-14T00:40:22;18.80;94.30
1083;DHT22;530;51.448;7.238;2023-06-14T00:42:48;18.80;94.30
1083;DHT22;530;51.448;7.238;2023-06-14T00:45:14;18.90;94.20
1083;DHT22;530;51.448;7.238;2023-06-14T00:47:41;18.80;94.10
1083;DHT22;530;51.448;7.238;2023-06-14T00:50:09;18.80;94.30
1083;DHT22;530;51.448;7.238;2023-06-14T00:52:35;18.80;94.60
1083;DHT22;530;51.448;7.238;2023-06-14T00:55:01;18.70;94.60
1083;DHT22;530;51.448;7.238;2023-06-14T00:57:27;18.70;94.70
1083;DHT22;530;51.448;7.238;2023-06-14T00:59:55;18.70;94.70
1083;DHT22;530;51.448;7.238;2023-06-14T01:02:21;18.80;94.30
1083;DHT22;530;51.448;7.238;2023-06-14T01:04:48;18.70;94.30
1083;DHT22;530;51.448;7.238;2023-06-14T01:15:39;18.70;94.20
1083;DHT22;530;51.448;7.238;2023-06-14T01:18:06;18.70;94.20
1083;DHT22;530;51.448;7.238;2023-06-14T01:20:33;18.60;94.20
1083;DHT22;530;51.448;7.238;2023-06-14T01:23:02;18.60;94.30
1083;DHT22;530;51.448;7.238;2023-06-14T01:25:27;18.50;94.40
1083;DHT22;530;51.448;7.238;2023-06-14T01:30:23;18.50;94.10
1083;DHT22;530;51.448;7.238;2023-06-14T01:32:52;18.50;94.20
1083;DHT22;530;51.448;7.238;2023-06-14T01:35:18;18.50;94.50
1083;DHT22;530;51.448;7.238;2023-06-14T01:37:47;18.40;94.70
1083;DHT22;530;51.448;7.238;2023-06-14T01:40:14;18.40;94.80
1083;DHT22;530;51.448;7.238;2023-06-14T01:42:41;18.30;95.00
1083;DHT22;530;51.448;7.238;2023-06-14T01:45:09;18.30;94.90
1083;DHT22;530;51.448;7.238;2023-06-14T01:47:36;18.30;95.00
1083;DHT22;530;51.448;7.238;2023-06-14T01:50:03;18.30;94.90
1083;DHT22;530;51.448;7.238;2023-06-14T01:52:29;18.20;95.00
1083;DHT22;530;51.448;7.238;2023-06-14T01:54:55;18.20;95.10
1083;DHT22;530;51.448;7.238;2023-06-14T01:57:21;18.20;95.20
1083;DHT22;530;51.448;7.238;2023-06-14T01:59:47;18.20;95.30
1083;DHT22;530;51.448;7.238;2023-06-14T02:02:14;18.20;95.30
1083;DHT22;530;51.448;7.238;2023-06-14T02:04:40;18.10;95.30
1083;DHT22;530;51.448;7.238;2023-06-14T02:07:06;18.10;95.50
1083;DHT22;530;51.448;7.238;2023-06-14T02:09:33;18.00;95.50
1083;DHT22;530;51.448;7.238;2023-06-14T02:11:59;18.00;95.70
1083;DHT22;530;51.448;7.238;2023-06-14T02:14:25;17.90;96.10
1083;DHT22;530;51.448;7.238;2023-06-14T02:16:51;17.90;96.20
1083;DHT22;530;51.448;7.238;2023-06-14T02:19:19;17.90;96.00
1083;DHT22;530;51.448;7.238;2023-06-14T02:21:45;17.90;95.90
1083;DHT22;530;51.448;7.238;2023-06-14T02:24:11;17.90;95.70
1083;DHT22;530;51.448;7.238;2023-06-14T02:26:37;17.90;95.60
1083;DHT22;530;51.448;7.238;2023-06-14T02:29:09;17.90;95.90
1083;DHT22;530;51.448;7.238;2023-06-14T02:31:37;17.90;96.10
1083;DHT22;530;51.448;7.238;2023-06-14T02:34:03;17.90;96.00
1083;DHT22;530;51.448;7.238;2023-06-14T02:36:29;17.90;96.10
1083;DHT22;530;51.448;7.238;2023-06-14T02:38:57;17.80;96.10
1083;DHT22;530;51.448;7.238;2023-06-14T02:41:24;17.80;96.10
1083;DHT22;530;51.448;7.238;2023-06-14T02:43:52;17.80;96.20
1083;DHT22;530;51.448;7.238;2023-06-14T02:46:17;17.70;96.10
1083;DHT22;530;51.448;7.238;2023-06-14T02:48:43;17.70;96.40
1083;DHT22;530;51.448;7.238;2023-06-14T02:51:09;17.70;96.60
1083;DHT22;530;51.448;7.238;2023-06-14T02:53:35;17.60;96.40
1083;DHT22;530;51.448;7.238;2023-06-14T02:56:02;17.60;96.30
1083;DHT22;530;51.448;7.238;2023-06-14T02:58:29;17.60;96.40
1083;DHT22;530;51.448;7.238;2023-06-14T03:00:55;17.50;96.90
1083;DHT22;530;51.448;7.238;2023-06-14T03:03:21;17.50;96.90
1083;DHT22;530;51.448;7.238;2023-06-14T03:05:48;17.50;97.00
1083;DHT22;530;51.448;7.238;2023-06-14T03:08:18;17.50;96.80
1083;DHT22;530;51.448;7.238;2023-06-14T03:10:48;17.40;96.70
1083;DHT22;530;51.448;7.238;2023-06-14T03:13:15;17.40;96.60
1083;DHT22;530;51.448;7.238;2023-06-14T03:15:44;17.40;96.40
1083;DHT22;530;51.448;7.238;2023-06-14T03:18:10;17.40;96.60
1083;DHT22;530;51.448;7.238;2023-06-14T03:20:38;17.30;96.60
1083;DHT22;530;51.448;7.238;2023-06-14T03:23:04;17.30;96.60
1083;DHT22;530;51.448;7.238;2023-06-14T03:25:31;17.30;96.50
1083;DHT22;530;51.448;7.238;2023-06-14T03:27:58;17.30;96.40
1083;DHT22;530;51.448;7.238;2023-06-14T03:30:24;17.30;96.50
1083;DHT22;530;51.448;7.238;2023-06-14T03:32:49;17.30;96.40
1083;DHT22;530;51.448;7.238;2023-06-14T03:35:19;17.20;96.50
1083;DHT22;530;51.448;7.238;2023-06-14T03:37:46;17.30;96.40
1083;DHT22;530;51.448;7.238;2023-06-14T03:40:12;17.30;96.40
1083;DHT22;530;51.448;7.238;2023-06-14T03:42:39;17.30;96.80
1083;DHT22;530;51.448;7.238;2023-06-14T03:45:08;17.30;97.00
1083;DHT22;530;51.448;7.238;2023-06-14T03:47:34;17.30;97.10
1083;DHT22;530;51.448;7.238;2023-06-14T03:50:00;17.30;97.10
1083;DHT22;530;51.448;7.238;2023-06-14T03:52:27;17.20;97.10
1083;DHT22;530;51.448;7.238;2023-06-14T03:54:52;17.30;97.10
1083;DHT22;530;51.448;7.238;2023-06-14T03:57:19;17.20;97.30
1083;DHT22;530;51.448;7.238;2023-06-14T03:59:45;17.20;97.40
1083;DHT22;530;51.448;7.238;2023-06-14T04:02:12;17.10;98.00
1083;DHT22;530;51.448;7.238;2023-06-14T04:04:42;17.10;97.60
1083;DHT22;530;51.448;7.238;2023-06-14T04:07:12;17.10;97.20
1083;DHT22;530;51.448;7.238;2023-06-14T04:09:39;17.20;96.90
1083;DHT22;530;51.448;7.238;2023-06-14T04:12:06;17.20;96.90
1083;DHT22;530;51.448;7.238;2023-06-14T04:14:32;17.20;96.90
1083;DHT22;530;51.448;7.238;2023-06-14T04:17:00;17.20;96.80
1083;DHT22;530;51.448;7.238;2023-06-14T04:19:26;17.20;96.80
1083;DHT22;530;51.448;7.238;2023-06-14T04:21:52;17.20;96.80
1083;DHT22;530;51.448;7.238;2023-06-14T04:24:18;17.20;96.70
1083;DHT22;530;51.448;7.238;2023-06-14T04:26:45;17.20;96.90
1083;DHT22;530;51.448;7.238;2023-06-14T04:29:16;17.20;96.90
1083;DHT22;530;51.448;7.238;2023-06-14T04:31:46;17.20;96.90
1083;DHT22;530;51.448;7.238;2023-06-14T04:34:12;17.20;97.00
1083;DHT22;530;51.448;7.238;2023-06-14T04:36:47;17.20;97.10
1083;DHT22;530;51.448;7.238;2023-06-14T04:39:19;17.30;96.90
1083;DHT22;530;51.448;7.238;2023-06-14T04:41:45;17.30;96.90
1083;DHT22;530;51.448;7.238;2023-06-14T04:44:10;17.30;96.80
1083;DHT22;530;51.448;7.238;2023-06-14T04:46:38;17.40;96.70
1083;DHT22;530;51.448;7.238;2023-06-14T04:49:09;17.40;96.70
1083;DHT22;530;51.448;7.238;2023-06-14T04:51:35;17.50;96.70
1083;DHT22;530;51.448;7.238;2023-06-14T04:54:02;17.50;96.80
1083;DHT22;530;51.448;7.238;2023-06-14T04:56:29;17.50;96.60
1083;DHT22;530;51.448;7.238;2023-06-14T04:58:55;17.50;96.70
1083;DHT22;530;51.448;7.238;2023-06-14T05:01:22;17.50;96.70
1083;DHT22;530;51.448;7.238;2023-06-14T05:03:49;17.50;96.60
1083;DHT22;530;51.448;7.238;2023-06-14T05:06:15;17.60;96.60
1083;DHT22;530;51.448;7.238;2023-06-14T05:08:41;17.60;96.50
1083;DHT22;530;51.448;7.238;2023-06-14T05:11:07;17.60;96.60
1083;DHT22;530;51.448;7.238;2023-06-14T05:13:33;17.80;96.40
1083;DHT22;530;51.448;7.238;2023-06-14T05:16:00;17.80;96.10
1083;DHT22;530;51.448;7.238;2023-06-14T05:18:26;17.90;96.00
1083;DHT22;530;51.448;7.238;2023-06-14T05:20:52;18.00;96.00
1083;DHT22;530;51.448;7.238;2023-06-14T05:23:17;18.00;96.40
1083;DHT22;530;51.448;7.238;2023-06-14T05:25:44;18.10;95.90
1083;DHT22;530;51.448;7.238;2023-06-14T05:28:10;18.20;95.80
1083;DHT22;530;51.448;7.238;2023-06-14T05:30:37;18.20;96.00
1083;DHT22;530;51.448;7.238;2023-06-14T05:33:03;18.30;95.60
1083;DHT22;530;51.448;7.238;2023-06-14T05:35:29;18.40;95.80
1083;DHT22;530;51.448;7.238;2023-06-14T05:37:55;18.50;95.70
1083;DHT22;530;51.448;7.238;2023-06-14T05:40:20;18.60;95.70
1083;DHT22;530;51.448;7.238;2023-06-14T05:42:46;18.60;96.20
1083;DHT22;530;51.448;7.238;2023-06-14T05:45:12;18.70;96.20
1083;DHT22;530;51.448;7.238;2023-06-14T05:47:38;18.80;95.70
1083;DHT22;530;51.448;7.238;2023-06-14T05:50:04;18.80;95.50
1083;DHT22;530;51.448;7.238;2023-06-14T05:52:29;18.90;95.50
1083;DHT22;530;51.448;7.238;2023-06-14T05:54:56;19.10;95.30
1083;DHT22;530;51.448;7.238;2023-06-14T05:57:22;19.20;94.80
1083;DHT22;530;51.448;7.238;2023-06-14T05:59:48;19.30;95.20
1083;DHT22;530;51.448;7.238;2023-06-14T06:02:13;19.30;95.20
1083;DHT22;530;51.448;7.238;2023-06-14T06:04:39;19.40;94.40
1083;DHT22;530;51.448;7.238;2023-06-14T06:07:05;19.60;93.90
1083;DHT22;530;51.448;7.238;2023-06-14T06:09:31;19.60;93.40
1083;DHT22;530;51.448;7.238;2023-06-14T06:11:57;19.80;93.30
1083;DHT22;530;51.448;7.238;2023-06-14T06:14:22;19.80;93.40
1083;DHT22;530;51.448;7.238;2023-06-14T06:16:48;19.80;93.90
1083;DHT22;530;51.448;7.238;2023-06-14T06:19:14;19.80;93.40
1083;DHT22;530;51.448;7.238;2023-06-14T06:21:40;19.80;94.00
1083;DHT22;530;51.448;7.238;2023-06-14T06:24:06;19.90;93.30
1083;DHT22;530;51.448;7.238;2023-06-14T06:26:32;20.00;92.80
1083;DHT22;530;51.448;7.238;2023-06-14T06:28:58;20.10;92.60
1083;DHT22;530;51.448;7.238;2023-06-14T06:31:24;20.20;93.00
1083;DHT22;530;51.448;7.238;2023-06-14T06:33:51;20.20;93.30
1083;DHT22;530;51.448;7.238;2023-06-14T06:36:17;20.30;92.90
1083;DHT22;530;51.448;7.238;2023-06-14T06:38:42;20.40;92.20
1083;DHT22;530;51.448;7.238;2023-06-14T06:41:08;20.40;92.40
1083;DHT22;530;51.448;7.238;2023-06-14T06:43:34;20.50;92.60
1083;DHT22;530;51.448;7.238;2023-06-14T06:45:59;20.60;92.10
1083;DHT22;530;51.448;7.238;2023-06-14T06:48:25;20.60;91.80
1083;DHT22;530;51.448;7.238;2023-06-14T06:50:51;20.70;91.60
1083;DHT22;530;51.448;7.238;2023-06-14T06:53:17;20.80;91.40
1083;DHT22;530;51.448;7.238;2023-06-14T06:55:44;20.70;91.70
1083;DHT22;530;51.448;7.238;2023-06-14T06:58:10;20.70;91.80
1083;DHT22;530;51.448;7.238;2023-06-14T07:00:36;20.80;91.20
1083;DHT22;530;51.448;7.238;2023-06-14T07:03:01;20.80;91.30
1083;DHT22;530;51.448;7.238;2023-06-14T07:05:29;20.80;91.20
1083;DHT22;530;51.448;7.238;2023-06-14T07:07:55;20.90;91.60
1083;DHT22;530;51.448;7.238;2023-06-14T07:10:21;21.00;91.10
1083;DHT22;530;51.448;7.238;2023-06-14T07:12:47;21.00;90.60
1083;DHT22;530;51.448;7.238;2023-06-14T07:15:14;21.10;90.40
1083;DHT22;530;51.448;7.238;2023-06-14T07:17:39;21.20;90.70
1083;DHT22;530;51.448;7.238;2023-06-14T07:20:06;21.20;90.80
1083;DHT22;530;51.448;7.238;2023-06-14T07:22:33;21.20;90.80
1083;DHT22;530;51.448;7.238;2023-06-14T07:24:59;21.30;90.20
1083;DHT22;530;51.448;7.238;2023-06-14T07:27:24;21.30;90.40
1083;DHT22;530;51.448;7.238;2023-06-14T07:29:50;21.30;90.30
1083;DHT22;530;51.448;7.238;2023-06-14T07:32:16;21.40;90.40
1083;DHT22;530;51.448;7.238;2023-06-14T07:34:41;21.30;90.60
1083;DHT22;530;51.448;7.238;2023-06-14T07:37:07;21.30;90.60
1083;DHT22;530;51.448;7.238;2023-06-14T07:39:33;21.30;89.60
1083;DHT22;530;51.448;7.238;2023-06-14T07:41:58;21.30;88.80
1083;DHT22;530;51.448;7.238;2023-06-14T07:44:24;21.30;88.50
1083;DHT22;530;51.448;7.238;2023-06-14T07:46:50;21.40;87.60
1083;DHT22;530;51.448;7.238;2023-06-14T07:49:15;21.40;88.10
1083;DHT22;530;51.448;7.238;2023-06-14T07:51:41;21.50;88.50
1083;DHT22;530;51.448;7.238;2023-06-14T07:54:09;21.50;89.20
1083;DHT22;530;51.448;7.238;2023-06-14T07:56:35;21.50;88.60
1083;DHT22;530;51.448;7.238;2023-06-14T07:59:01;21.50;87.30
1083;DHT22;530;51.448;7.238;2023-06-14T08:01:27;21.40;86.60
1083;DHT22;530;51.448;7.238;2023-06-14T08:03:53;21.30;87.10
1083;DHT22;530;51.448;7.238;2023-06-14T08:06:19;21.20;87.50
1083;DHT22;530;51.448;7.238;2023-06-14T08:08:45;21.20;88.30
1083;DHT22;530;51.448;7.238;2023-06-14T08:11:10;21.10;88.50
1083;DHT22;530;51.448;7.238;2023-06-14T08:13:36;21.00;89.40
1083;DHT22;530;51.448;7.238;2023-06-14T08:16:02;21.00;90.00
1083;DHT22;530;51.448;7.238;2023-06-14T08:18:30;21.00;88.90
1083;DHT22;530;51.448;7.238;2023-06-14T08:20:55;20.90;87.10
1083;DHT22;530;51.448;7.238;2023-06-14T08:23:23;21.00;85.60
1083;DHT22;530;51.448;7.238;2023-06-14T08:25:48;21.00;86.20
1083;DHT22;530;51.448;7.238;2023-06-14T08:28:14;21.00;85.10
1083;DHT22;530;51.448;7.238;2023-06-14T08:30:42;21.00;85.10
1083;DHT22;530;51.448;7.238;2023-06-14T08:33:08;21.00;84.80
1083;DHT22;530;51.448;7.238;2023-06-14T08:35:33;21.10;82.50
1083;DHT22;530;51.448;7.238;2023-06-14T08:38:02;21.10;84.40
1083;DHT22;530;51.448;7.238;2023-06-14T08:40:30;21.20;83.00
1083;DHT22;530;51.448;7.238;2023-06-14T08:42:56;21.20;83.90
1083;DHT22;530;51.448;7.238;2023-06-14T08:45:23;21.20;84.20
1083;DHT22;530;51.448;7.238;2023-06-14T08:47:53;21.30;83.90
1083;DHT22;530;51.448;7.238;2023-06-14T08:50:26;21.30;83.50
1083;DHT22;530;51.448;7.238;2023-06-14T08:52:57;21.40;83.50
1083;DHT22;530;51.448;7.238;2023-06-14T08:55:25;21.50;84.10
1083;DHT22;530;51.448;7.238;2023-06-14T08:57:55;21.60;82.40
1083;DHT22;530;51.448;7.238;2023-06-14T09:00:23;21.70;81.30
1083;DHT22;530;51.448;7.238;2023-06-14T09:02:50;21.70;81.50
1083;DHT22;530;51.448;7.238;2023-06-14T09:05:23;21.80;81.90
1083;DHT22;530;51.448;7.238;2023-06-14T09:07:49;21.80;79.80
1083;DHT22;530;51.448;7.238;2023-06-14T09:10:16;21.90;83.20
1083;DHT22;530;51.448;7.238;2023-06-14T09:12:42;22.10;82.30
1083;DHT22;530;51.448;7.238;2023-06-14T09:15:09;22.20;81.50
1083;DHT22;530;51.448;7.238;2023-06-14T09:17:36;22.30;79.90
1083;DHT22;530;51.448;7.238;2023-06-14T09:20:07;22.40;81.40
1083;DHT22;530;51.448;7.238;2023-06-14T09:22:35;22.40;80.60
1083;DHT22;530;51.448;7.238;2023-06-14T09:25:01;22.50;78.80
1083;DHT22;530;51.448;7.238;2023-06-14T09:27:27;22.50;76.20
1083;DHT22;530;51.448;7.238;2023-06-14T09:29:53;22.60;79.00
1083;DHT22;530;51.448;7.238;2023-06-14T09:32:23;22.70;76.30
1083;DHT22;530;51.448;7.238;2023-06-14T09:34:50;22.70;76.70
1083;DHT22;530;51.448;7.238;2023-06-14T09:37:29;22.60;73.80
1083;DHT22;530;51.448;7.238;2023-06-14T09:39:55;22.60;73.10
1083;DHT22;530;51.448;7.238;2023-06-14T09:42:21;22.50;73.30
1083;DHT22;530;51.448;7.238;2023-06-14T09:44:49;22.60;72.50
1083;DHT22;530;51.448;7.238;2023-06-14T09:47:18;22.60;73.60
1083;DHT22;530;51.448;7.238;2023-06-14T09:49:44;22.60;74.60
1083;DHT22;530;51.448;7.238;2023-06-14T09:52:14;22.60;72.90
1083;DHT22;530;51.448;7.238;2023-06-14T09:54:46;22.60;73.60
1083;DHT22;530;51.448;7.238;2023-06-14T09:57:13;22.70;74.10
1083;DHT22;530;51.448;7.238;2023-06-14T09:59:44;22.80;77.30
1083;DHT22;530;51.448;7.238;2023-06-14T10:02:18;22.80;76.00
1083;DHT22;530;51.448;7.238;2023-06-14T10:04:53;22.90;74.80
1083;DHT22;530;51.448;7.238;2023-06-14T10:07:24;22.90;75.30
1083;DHT22;530;51.448;7.238;2023-06-14T10:09:53;22.90;80.40
1083;DHT22;530;51.448;7.238;2023-06-14T10:12:19;23.00;80.20
1083;DHT22;530;51.448;7.238;2023-06-14T10:14:51;23.00;77.90
1083;DHT22;530;51.448;7.238;2023-06-14T10:22:50;23.30;77.10
1083;DHT22;530;51.448;7.238;2023-06-14T10:25:27;23.30;74.10
1083;DHT22;530;51.448;7.238;2023-06-14T10:39:12;23.40;80.20
1083;DHT22;530;51.448;7.238;2023-06-14T10:41:41;23.40;79.20
1083;DHT22;530;51.448;7.238;2023-06-14T10:46:54;23.30;78.80
1083;DHT22;530;51.448;7.238;2023-06-14T10:50:06;23.40;77.20
1083;DHT22;530;51.448;7.238;2023-06-14T10:52:17;23.50;75.80
1083;DHT22;530;51.448;7.238;2023-06-14T10:55:05;23.40;74.40
1083;DHT22;530;51.448;7.238;2023-06-14T10:57:35;23.50;78.60
1083;DHT22;530;51.448;7.238;2023-06-14T11:00:05;23.50;76.30
1083;DHT22;530;51.448;7.238;2023-06-14T11:10:58;23.70;79.30
1083;DHT22;530;51.448;7.238;2023-06-14T11:13:26;23.70;77.70
1083;DHT22;530;51.448;7.238;2023-06-14T11:15:52;23.70;79.40
1083;DHT22;530;51.448;7.238;2023-06-14T11:18:23;23.80;77.00
1083;DHT22;530;51.448;7.238;2023-06-14T11:20:53;23.80;79.30
1083;DHT22;530;51.448;7.238;2023-06-14T11:23:19;23.90;79.20
1083;DHT22;530;51.448;7.238;2023-06-14T11:25:51;23.90;78.20
1083;DHT22;530;51.448;7.238;2023-06-14T11:28:17;23.90;77.90
1083;DHT22;530;51.448;7.238;2023-06-14T11:30:45;23.90;77.00
1083;DHT22;530;51.448;7.238;2023-06-14T11:33:17;23.90;76.60
1083;DHT22;530;51.448;7.238;2023-06-14T11:35:44;24.00;77.00
1083;DHT22;530;51.448;7.238;2023-06-14T11:38:10;24.00;76.70
1083;DHT22;530;51.448;7.238;2023-06-14T11:40:38;24.10;79.70
1083;DHT22;530;51.448;7.238;2023-06-14T11:43:04;24.10;76.20
1083;DHT22;530;51.448;7.238;2023-06-14T11:45:30;24.20;74.40
1083;DHT22;530;51.448;7.238;2023-06-14T11:48:00;24.20;74.00
1083;DHT22;530;51.448;7.238;2023-06-14T11:50:26;24.20;76.00
1083;DHT22;530;51.448;7.238;2023-06-14T11:52:59;24.20;74.80
1083;DHT22;530;51.448;7.238;2023-06-14T11:55:29;24.20;77.50
1083;DHT22;530;51.448;7.238;2023-06-14T11:57:55;24.30;74.10
1083;DHT22;530;51.448;7.238;2023-06-14T12:00:25;24.40;77.00
1083;DHT22;530;51.448;7.238;2023-06-14T12:02:54;24.40;72.00
1083;DHT22;530;51.448;7.238;2023-06-14T12:05:22;24.40;74.10
1083;DHT22;530;51.448;7.238;2023-06-14T12:07:47;24.40;77.50
1083;DHT22;530;51.448;7.238;2023-06-14T12:10:14;24.30;74.80
1083;DHT22;530;51.448;7.238;2023-06-14T12:12:40;24.40;76.10
1083;DHT22;530;51.448;7.238;2023-06-14T12:15:07;24.40;77.40
1083;DHT22;530;51.448;7.238;2023-06-14T12:17:36;24.40;74.90
1083;DHT22;530;51.448;7.238;2023-06-14T12:20:09;24.50;72.90
1083;DHT22;530;51.448;7.238;2023-06-14T12:22:55;24.50;75.70
1083;DHT22;530;51.448;7.238;2023-06-14T12:27:55;24.50;75.20
1083;DHT22;530;51.448;7.238;2023-06-14T12:30:21;24.50;76.20
1083;DHT22;530;51.448;7.238;2023-06-14T12:32:47;24.60;74.00
1083;DHT22;530;51.448;7.238;2023-06-14T12:35:14;24.70;75.70
1083;DHT22;530;51.448;7.238;2023-06-14T12:37:40;24.80;77.90
1083;DHT22;530;51.448;7.238;2023-06-14T12:40:06;24.80;74.30
1083;DHT22;530;51.448;7.238;2023-06-14T12:42:33;24.80;75.80
1083;DHT22;530;51.448;7.238;2023-06-14T12:44:59;24.90;73.70
1083;DHT22;530;51.448;7.238;2023-06-14T12:47:25;24.80;73.40
1083;DHT22;530;51.448;7.238;2023-06-14T12:49:52;24.80;72.00
1083;DHT22;530;51.448;7.238;2023-06-14T12:52:17;24.80;72.00
1083;DHT22;530;51.448;7.238;2023-06-14T12:54:43;24.70;72.60
1083;DHT22;530;51.448;7.238;2023-06-14T12:57:09;24.80;72.40
1083;DHT22;530;51.448;7.238;2023-06-14T12:59:35;24.80;73.60
1083;DHT22;530;51.448;7.238;2023-06-14T13:02:30;24.80;71.30
1083;DHT22;530;51.448;7.238;2023-06-14T13:04:56;24.80;74.00
1083;DHT22;530;51.448;7.238;2023-06-14T13:07:24;24.80;73.60
1083;DHT22;530;51.448;7.238;2023-06-14T13:09:50;24.80;70.90
1083;DHT22;530;51.448;7.238;2023-06-14T13:12:15;24.80;72.10
1083;DHT22;530;51.448;7.238;2023-06-14T13:14:41;24.80;74.00
1083;DHT22;530;51.448;7.238;2023-06-14T13:17:08;24.80;75.30
1083;DHT22;530;51.448;7.238;2023-06-14T13:19:35;24.80;70.60
1083;DHT22;530;51.448;7.238;2023-06-14T13:22:01;24.90;73.40
1083;DHT22;530;51.448;7.238;2023-06-14T13:24:27;24.80;70.40
1083;DHT22;530;51.448;7.238;2023-06-14T13:26:53;24.80;72.30
1083;DHT22;530;51.448;7.238;2023-06-14T13:29:19;24.70;74.10
1083;DHT22;530;51.448;7.238;2023-06-14T13:31:45;24.80;72.10
1083;DHT22;530;51.448;7.238;2023-06-14T13:34:11;24.80;72.70
1083;DHT22;530;51.448;7.238;2023-06-14T13:36:36;24.80;73.50
1083;DHT22;530;51.448;7.238;2023-06-14T13:39:02;24.80;75.00
1083;DHT22;530;51.448;7.238;2023-06-14T13:41:28;24.80;71.40
1083;DHT22;530;51.448;7.238;2023-06-14T13:43:59;24.70;70.20
1083;DHT22;530;51.448;7.238;2023-06-14T13:46:25;24.70;72.50
1083;DHT22;530;51.448;7.238;2023-06-14T13:48:51;24.80;71.20
1083;DHT22;530;51.448;7.238;2023-06-14T13:51:17;24.80;73.40
1083;DHT22;530;51.448;7.238;2023-06-14T13:53:50;24.80;73.10
1083;DHT22;530;51.448;7.238;2023-06-14T13:56:17;24.80;70.90
1083;DHT22;530;51.448;7.238;2023-06-14T13:58:43;24.80;70.50
1083;DHT22;530;51.448;7.238;2023-06-14T14:01:09;24.80;72.30
1083;DHT22;530;51.448;7.238;2023-06-14T14:03:35;24.80;72.70
1083;DHT22;530;51.448;7.238;2023-06-14T14:06:04;24.90;71.40
1083;DHT22;530;51.448;7.238;2023-06-14T14:08:31;24.80;70.40
1083;DHT22;530;51.448;7.238;2023-06-14T14:10:57;24.90;70.60
1083;DHT22;530;51.448;7.238;2023-06-14T14:13:22;25.00;72.90
1083;DHT22;530;51.448;7.238;2023-06-14T14:15:48;24.90;72.20
1083;DHT22;530;51.448;7.238;2023-06-14T14:18:18;25.00;71.70
1083;DHT22;530;51.448;7.238;2023-06-14T14:20:43;24.90;70.30
1083;DHT22;530;51.448;7.238;2023-06-14T14:23:09;24.90;70.30
1083;DHT22;530;51.448;7.238;2023-06-14T14:25:35;24.90;70.90
1083;DHT22;530;51.448;7.238;2023-06-14T14:28:01;24.90;72.80
1083;DHT22;530;51.448;7.238;2023-06-14T14:30:26;24.90;72.20
1083;DHT22;530;51.448;7.238;2023-06-14T14:32:53;24.90;72.20
1083;DHT22;530;51.448;7.238;2023-06-14T14:35:19;25.00;69.50
1083;DHT22;530;51.448;7.238;2023-06-14T14:37:45;25.00;68.90
1083;DHT22;530;51.448;7.238;2023-06-14T14:40:11;25.00;70.80
1083;DHT22;530;51.448;7.238;2023-06-14T14:42:37;25.00;69.40
1083;DHT22;530;51.448;7.238;2023-06-14T14:45:03;25.00;70.10
1083;DHT22;530;51.448;7.238;2023-06-14T14:47:29;25.00;69.20
1083;DHT22;530;51.448;7.238;2023-06-14T14:49:55;25.10;66.40
1083;DHT22;530;51.448;7.238;2023-06-14T14:52:20;25.00;68.30
1083;DHT22;530;51.448;7.238;2023-06-14T14:54:46;25.00;66.40
1083;DHT22;530;51.448;7.238;2023-06-14T14:57:12;24.90;67.30
1083;DHT22;530;51.448;7.238;2023-06-14T14:59:37;24.90;67.70
1083;DHT22;530;51.448;7.238;2023-06-14T15:02:03;24.90;68.10
1083;DHT22;530;51.448;7.238;2023-06-14T15:04:29;24.80;68.60
1083;DHT22;530;51.448;7.238;2023-06-14T15:06:55;24.70;65.90
1083;DHT22;530;51.448;7.238;2023-06-14T15:09:21;24.70;68.90
1083;DHT22;530;51.448;7.238;2023-06-14T15:11:46;24.70;67.80
1083;DHT22;530;51.448;7.238;2023-06-14T15:14:12;24.70;69.20
1083;DHT22;530;51.448;7.238;2023-06-14T15:16:38;24.80;66.80
1083;DHT22;530;51.448;7.238;2023-06-14T15:19:04;24.80;65.90
1083;DHT22;530;51.448;7.238;2023-06-14T15:21:30;24.80;68.80
1083;DHT22;530;51.448;7.238;2023-06-14T15:23:56;24.80;69.50
1083;DHT22;530;51.448;7.238;2023-06-14T15:26:21;24.80;68.60
1083;DHT22;530;51.448;7.238;2023-06-14T15:28:50;24.90;68.20
1083;DHT22;530;51.448;7.238;2023-06-14T15:31:16;24.90;66.80
1083;DHT22;530;51.448;7.238;2023-06-14T15:33:41;24.90;65.40
1083;DHT22;530;51.448;7.238;2023-06-14T15:36:09;24.90;65.60
1083;DHT22;530;51.448;7.238;2023-06-14T15:38:35;24.80;66.30
1083;DHT22;530;51.448;7.238;2023-06-14T15:41:01;24.80;67.00
1083;DHT22;530;51.448;7.238;2023-06-14T15:43:27;24.80;66.70
1083;DHT22;530;51.448;7.238;2023-06-14T15:45:52;24.80;63.50
1083;DHT22;530;51.448;7.238;2023-06-14T15:48:18;24.70;63.20
1083;DHT22;530;51.448;7.238;2023-06-14T15:50:44;24.70;64.20
1083;DHT22;530;51.448;7.238;2023-06-14T15:53:10;24.70;63.40
1083;DHT22;530;51.448;7.238;2023-06-14T15:55:35;24.70;62.70
1083;DHT22;530;51.448;7.238;2023-06-14T15:58:01;24.60;63.00
1083;DHT22;530;51.448;7.238;2023-06-14T16:00:27;24.60;63.40
1083;DHT22;530;51.448;7.238;2023-06-14T16:02:52;24.60;64.50
1083;DHT22;530;51.448;7.238;2023-06-14T16:05:18;24.60;66.40
1083;DHT22;530;51.448;7.238;2023-06-14T16:07:44;24.60;64.90
1083;DHT22;530;51.448;7.238;2023-06-14T16:10:10;24.60;65.80
1083;DHT22;530;51.448;7.238;2023-06-14T16:12:35;24.50;64.10
1083;DHT22;530;51.448;7.238;2023-06-14T16:15:01;24.50;64.70
1083;DHT22;530;51.448;7.238;2023-06-14T16:17:27;24.50;63.40
1083;DHT22;530;51.448;7.238;2023-06-14T16:19:52;24.50;63.30
1083;DHT22;530;51.448;7.238;2023-06-14T16:22:18;24.50;62.30
1083;DHT22;530;51.448;7.238;2023-06-14T16:24:44;24.50;61.90
1083;DHT22;530;51.448;7.238;2023-06-14T16:27:09;24.50;61.80
1083;DHT22;530;51.448;7.238;2023-06-14T16:29:36;24.40;62.90
1083;DHT22;530;51.448;7.238;2023-06-14T16:32:02;24.40;63.20
1083;DHT22;530;51.448;7.238;2023-06-14T16:34:28;24.40;64.40
1083;DHT22;530;51.448;7.238;2023-06-14T16:36:56;24.30;63.20
1083;DHT22;530;51.448;7.238;2023-06-14T16:39:22;24.30;64.80
1083;DHT22;530;51.448;7.238;2023-06-14T16:41:47;24.30;65.70
1083;DHT22;530;51.448;7.238;2023-06-14T16:44:13;24.30;65.10
1083;DHT22;530;51.448;7.238;2023-06-14T16:46:39;24.20;63.50
1083;DHT22;530;51.448;7.238;2023-06-14T16:49:05;24.20;62.70
1083;DHT22;530;51.448;7.238;2023-06-14T16:51:31;24.20;63.50
1083;DHT22;530;51.448;7.238;2023-06-14T16:53:57;24.20;64.90
1083;DHT22;530;51.448;7.238;2023-06-14T16:56:23;24.10;65.60